Terminal Aerodrome Forecast
Issued by NWS Sterling, VA

Current Version | Previous Version | Graphics & Text | Print | Product List | Glossary On
Versions: 1 2 3 4 5 6 7 8 9 10 11 12 13 14 15 16 17 18 19 20 21 22 23 24 25 26
000
FTUS41 KLWX 241400 AAA
TAFIAD
TAF AMD
KIAD 241431Z 2415/2518 35009KT 4SM BR OVC005
      TEMPO 2415/2417 2SM -RASN BR
     FM241800 31010KT P6SM OVC015
     FM242000 30012G20KT P6SM BKN250
     FM250000 29008KT P6SM FEW250=

USA.gov is the U.S. government's official web portal to all federal, state and local government web resources and services.